Time;durP1;ratioP1;P1;durP2;ratioP2;P2;SDS_P1;SDS_P2;PMS_P1;PMS_P2;Temp;Humidity;BMP_temperature;BMP_pressure;BME280_temperature;BME280_humidity;BME280_pressure;Samples;Min_cycle;Max_cycle;Signal;HPM_P1;HPM_P2
2021/09/12 00:01:35;;;;;;;23.65;9.88;;;;;;;16.00;69.37;100418.16;5014000;28;20768;-68
2021/09/12 00:04:00;;;;;;;24.70;10.20;;;;;;;15.89;69.33;100406.66;5012503;28;20072;-68
2021/09/12 00:06:27;;;;;;;23.02;9.95;;;;;;;15.96;69.43;100414.13;5017616;28;20440;-68
2021/09/12 00:08:53;;;;;;;20.50;10.30;;;;;;;15.95;69.83;100418.66;5032565;28;20092;-68
2021/09/12 00:11:18;;;;;;;29.65;10.82;;;;;;;15.87;69.40;100414.06;5028762;28;20037;-67
2021/09/12 00:13:44;;;;;;;24.35;9.43;;;;;;;15.84;69.41;100403.59;5033708;28;20437;-68
2021/09/12 00:16:09;;;;;;;20.20;10.27;;;;;;;15.75;69.41;100392.94;5033040;28;20025;-68
2021/09/12 00:18:35;;;;;;;18.60;8.85;;;;;;;15.79;69.72;100405.97;5028654;28;20049;-68
2021/09/12 00:21:00;;;;;;;25.15;10.20;;;;;;;15.79;69.41;100414.06;5013592;28;20069;-67
2021/09/12 00:23:26;;;;;;;21.13;9.10;;;;;;;15.66;69.31;100400.19;5012168;28;20061;-68
2021/09/12 00:25:51;;;;;;;22.08;10.10;;;;;;;15.70;69.20;100408.78;5011942;28;20091;-65
2021/09/12 00:28:17;;;;;;;17.67;9.45;;;;;;;15.70;69.19;100409.66;5013293;28;20044;-65
2021/09/12 00:30:42;;;;;;;17.73;9.32;;;;;;;15.61;69.30;100405.22;5020406;28;20037;-65
2021/09/12 00:33:07;;;;;;;19.88;8.95;;;;;;;15.56;69.43;100406.72;5031380;28;20052;-65
2021/09/12 00:35:33;;;;;;;18.85;9.00;;;;;;;15.53;70.10;100409.75;5032878;28;20041;-65
2021/09/12 00:37:58;;;;;;;23.40;9.20;;;;;;;15.48;70.75;100418.34;5032755;28;20045;-65
2021/09/12 00:40:24;;;;;;;17.67;8.60;;;;;;;15.43;70.93;100415.31;5032868;28;20025;-65
2021/09/12 00:42:50;;;;;;;22.00;8.63;;;;;;;15.38;71.29;100416.81;5031627;28;20094;-65
2021/09/12 00:45:16;;;;;;;18.23;8.35;;;;;;;15.33;71.22;100414.56;5031457;28;20028;-65
2021/09/12 00:47:45;;;;;;;17.73;8.35;;;;;;;15.27;71.72;100412.50;5012826;28;20088;-65
2021/09/12 00:50:11;;;;;;;21.30;9.07;;;;;;;15.23;71.82;100407.59;5012925;28;20467;-65
2021/09/12 00:52:40;;;;;;;16.98;9.13;;;;;;;15.22;72.51;100409.44;5012610;28;20064;-65
2021/09/12 00:55:06;;;;;;;17.92;8.35;;;;;;;15.10;73.29;100391.84;5012761;28;20022;-65
2021/09/12 00:57:35;;;;;;;14.38;8.55;;;;;;;15.23;73.32;100419.25;5012883;28;20022;-65
2021/09/12 01:00:02;;;;;;;24.00;9.70;;;;;;;15.23;72.86;100410.28;5027817;28;20041;-65
2021/09/12 01:02:28;;;;;;;12.55;8.38;;;;;;;15.21;72.06;100415.88;5020099;28;20026;-65
2021/09/12 01:04:53;;;;;;;16.88;8.63;;;;;;;15.21;71.76;100420.41;5012705;28;20030;-65
2021/09/12 01:07:19;;;;;;;21.42;9.20;;;;;;;15.18;72.32;100415.31;5012393;28;20041;-65
2021/09/12 01:09:44;;;;;;;16.75;9.20;;;;;;;15.19;72.05;100412.47;5012784;28;20026;-65
2021/09/12 01:12:10;;;;;;;15.45;8.32;;;;;;;15.16;71.35;100412.78;5012443;28;20058;-65
2021/09/12 01:14:37;;;;;;;14.90;8.68;;;;;;;15.15;71.29;100412.94;5041818;28;20120;-65
2021/09/12 01:17:03;;;;;;;17.27;8.35;;;;;;;15.11;71.42;100407.03;5032014;28;20060;-65
2021/09/12 01:19:30;;;;;;;15.27;8.43;;;;;;;15.04;72.03;100399.72;5024324;28;20168;-65
2021/09/12 01:22:02;;;;;;;19.73;7.82;;;;;;;15.00;72.36;100404.59;5012007;28;20026;-65
2021/09/12 01:24:29;;;;;;;21.00;8.75;;;;;;;14.92;72.39;100401.00;5024463;28;20033;-65
2021/09/12 01:26:55;;;;;;;14.85;7.97;;;;;;;14.89;72.65;100399.47;5031293;28;20171;-65
2021/09/12 01:29:21;;;;;;;15.98;8.52;;;;;;;14.84;73.56;100387.47;5017269;28;20113;-68
2021/09/12 01:31:46;;;;;;;15.30;7.93;;;;;;;14.87;74.05;100400.66;5010398;28;20056;-67
2021/09/12 01:34:12;;;;;;;16.00;8.15;;;;;;;14.87;73.86;100401.47;5011654;28;20038;-68
2021/09/12 01:36:39;;;;;;;14.93;7.40;;;;;;;14.87;73.44;100404.19;5012021;28;20037;-65
2021/09/12 01:39:05;;;;;;;18.13;8.40;;;;;;;14.85;72.82;100400.81;5010774;28;20029;-65
2021/09/12 01:41:31;;;;;;;21.58;8.32;;;;;;;14.76;72.02;100385.56;5024824;28;20053;-65
2021/09/12 01:43:59;;;;;;;20.92;8.13;;;;;;;14.80;72.11;100405.00;5009914;28;20036;-65
2021/09/12 01:46:26;;;;;;;20.48;8.90;;;;;;;14.76;72.12;100404.47;5012019;28;20061;-65
2021/09/12 01:48:54;;;;;;;17.85;7.85;;;;;;;14.69;72.95;100406.13;5011721;28;20426;-67
2021/09/12 01:51:20;;;;;;;20.48;8.80;;;;;;;14.67;73.54;100410.81;5011736;28;20426;-67
2021/09/12 01:53:46;;;;;;;19.58;9.10;;;;;;;14.53;73.60;100402.44;5011786;28;20079;-67
2021/09/12 01:56:13;;;;;;;14.02;7.40;;;;;;;14.55;74.29;100408.53;5010401;28;20116;-67
2021/09/12 01:58:38;;;;;;;21.20;8.32;;;;;;;14.51;74.51;100410.69;5011657;28;20549;-67
2021/09/12 02:01:04;;;;;;;17.75;7.88;;;;;;;14.39;74.54;100395.78;5011560;28;20026;-67
2021/09/12 02:03:30;;;;;;;14.02;7.85;;;;;;;14.47;74.21;100416.56;5011588;28;20087;-67
2021/09/12 02:05:55;;;;;;;16.52;8.43;;;;;;;14.39;74.39;100403.88;5021864;28;20021;-69
2021/09/12 02:08:21;;;;;;;19.40;8.18;;;;;;;14.39;74.82;100411.97;5030960;28;20029;-67
2021/09/12 02:10:46;;;;;;;19.63;8.02;;;;;;;14.32;75.96;100408.19;5030466;28;20037;-67
2021/09/12 02:13:12;;;;;;;16.15;7.70;;;;;;;14.26;76.53;100403.44;5030403;28;20044;-67
2021/09/12 02:15:38;;;;;;;18.73;7.50;;;;;;;14.32;76.35;100416.28;5030343;28;20048;-67
2021/09/12 02:18:04;;;;;;;21.27;8.20;;;;;;;14.32;75.67;100420.84;5030409;28;20031;-67
2021/09/12 02:20:29;;;;;;;20.50;8.23;;;;;;;14.29;75.11;100423.84;5045633;28;20037;-65
2021/09/12 02:22:55;;;;;;;17.13;7.45;;;;;;;14.25;75.25;100419.78;5030291;28;20382;-65
2021/09/12 02:25:21;;;;;;;20.25;8.20;;;;;;;14.09;75.20;100398.84;5030301;28;20113;-64
2021/09/12 02:27:47;;;;;;;13.50;7.50;;;;;;;14.23;75.67;100416.38;5030254;28;20053;-65
2021/09/12 02:30:13;;;;;;;11.50;7.35;;;;;;;14.14;75.44;100401.94;5030294;28;20036;-64
2021/09/12 02:32:38;;;;;;;17.38;7.57;;;;;;;14.25;75.08;100427.88;5030141;28;20033;-64
2021/09/12 02:35:04;;;;;;;12.70;6.50;;;;;;;14.24;75.95;100421.63;5045439;28;20037;-64
2021/09/12 02:37:30;;;;;;;11.20;6.80;;;;;;;14.25;76.08;100417.91;5007800;28;20022;-64
2021/09/12 02:39:55;;;;;;;18.35;7.72;;;;;;;14.15;75.17;100406.31;5010280;28;20109;-64
2021/09/12 02:42:21;;;;;;;12.90;7.28;;;;;;;14.17;74.76;100417.81;5010310;28;20029;-64
2021/09/12 02:44:46;;;;;;;16.20;7.72;;;;;;;14.16;75.30;100421.53;5010488;28;20434;-64
2021/09/12 02:47:12;;;;;;;15.35;7.40;;;;;;;14.12;75.04;100428.22;5010099;28;20125;-64
2021/09/12 02:49:37;;;;;;;11.98;7.50;;;;;;;14.03;75.37;100410.28;5009924;28;20036;-64
2021/09/12 02:52:03;;;;;;;16.77;7.93;;;;;;;14.01;75.55;100414.09;5012610;28;20036;-67
2021/09/12 02:54:29;;;;;;;13.70;6.85;;;;;;;13.98;75.67;100419.81;5030943;28;20814;-67
2021/09/12 02:56:54;;;;;;;15.07;7.50;;;;;;;13.96;76.77;100422.66;5029761;28;20021;-68
2021/09/12 02:59:19;;;;;;;16.20;7.15;;;;;;;13.96;76.26;100421.81;5028983;28;20028;-68
